Time;durP1;ratioP1;P1;durP2;ratioP2;P2;SDS_P1;SDS_P2;PMS_P1;PMS_P2;Temp;Humidity;BMP_temperature;BMP_pressure;BME280_temperature;BME280_humidity;BME280_pressure;Samples;Min_cycle;Max_cycle;Signal;HPM_P1;HPM_P2
2022/03/06 00:00:27;;;;;;;58.85;31.55;;;;;;;;;;5065003;28;20360;-81
2022/03/06 00:02:53;;;;;;;63.88;32.17;;;;;;;;;;5065341;28;20033;-81
2022/03/06 00:05:19;;;;;;;62.47;31.48;;;;;;;;;;5071262;28;20051;-80
2022/03/06 00:07:45;;;;;;;59.05;31.85;;;;;;;;;;5053874;28;20087;-82
2022/03/06 00:10:11;;;;;;;60.90;31.15;;;;;;;;;;5054152;28;20456;-82
2022/03/06 00:12:37;;;;;;;59.80;29.60;;;;;;;;;;5071866;28;20036;-81
2022/03/06 00:15:04;;;;;;;67.63;32.03;;;;;;;;;;5056337;28;20558;-81
2022/03/06 00:17:30;;;;;;;64.47;30.40;;;;;;;;;;5051795;28;20456;-81
2022/03/06 00:19:56;;;;;;;61.85;29.88;;;;;;;;;;5092536;28;20033;-81
2022/03/06 00:22:22;;;;;;;60.08;29.58;;;;;;;;;;5080144;28;20052;-81
2022/03/06 00:24:48;;;;;;;62.03;31.10;;;;;;;;;;5078263;28;20051;-80
2022/03/06 00:27:14;;;;;;;59.70;30.60;;;;;;;;;;5091192;28;20028;-80
2022/03/06 00:29:40;;;;;;;59.22;30.08;;;;;;;;;;5077645;28;20457;-80
2022/03/06 00:32:07;;;;;;;61.70;29.88;;;;;;;;;;5069948;28;20101;-80
2022/03/06 00:34:33;;;;;;;65.97;30.33;;;;;;;;;;5082890;28;20040;-81
2022/03/06 00:36:59;;;;;;;59.67;29.10;;;;;;;;;;5067958;28;20051;-80
2022/03/06 00:39:25;;;;;;;59.78;31.08;;;;;;;;;;5058602;28;20083;-80
2022/03/06 00:41:51;;;;;;;59.88;29.02;;;;;;;;;;5062642;28;20035;-79
2022/03/06 00:44:16;;;;;;;59.40;29.95;;;;;;;;;;5092519;28;20114;-79
2022/03/06 00:46:42;;;;;;;62.60;31.15;;;;;;;;;;5040232;28;20087;-81
2022/03/06 00:49:08;;;;;;;62.53;30.48;;;;;;;;;;5040061;28;20048;-81
2022/03/06 00:51:34;;;;;;;61.63;29.40;;;;;;;;;;5039973;28;20033;-80
2022/03/06 00:54:00;;;;;;;62.30;31.20;;;;;;;;;;5039857;28;20068;-82
2022/03/06 00:56:26;;;;;;;65.47;31.52;;;;;;;;;;5040027;28;20042;-80
2022/03/06 00:58:52;;;;;;;62.20;31.50;;;;;;;;;;5039981;28;20068;-80
2022/03/06 01:01:18;;;;;;;63.13;31.27;;;;;;;;;;5039878;28;20428;-80
2022/03/06 01:03:44;;;;;;;63.13;31.35;;;;;;;;;;5040712;28;20053;-80
2022/03/06 01:06:10;;;;;;;67.85;31.20;;;;;;;;;;5039337;28;20033;-80
2022/03/06 01:08:36;;;;;;;61.33;32.60;;;;;;;;;;5040096;28;20457;-80
2022/03/06 01:11:02;;;;;;;65.72;30.98;;;;;;;;;;5045455;28;20053;-79
2022/03/06 01:13:28;;;;;;;62.17;30.90;;;;;;;;;;5042867;28;20061;-81
2022/03/06 01:15:54;;;;;;;68.78;30.80;;;;;;;;;;5041416;28;20428;-80
2022/03/06 01:18:20;;;;;;;68.47;31.65;;;;;;;;;;5040771;28;20038;-82
2022/03/06 01:20:47;;;;;;;63.10;30.77;;;;;;;;;;5040793;28;20045;-83
2022/03/06 01:23:12;;;;;;;65.00;30.88;;;;;;;;;;5039640;28;20073;-81
2022/03/06 01:25:39;;;;;;;64.32;32.28;;;;;;;;;;5045483;28;20048;-79
2022/03/06 01:28:05;;;;;;;58.55;29.90;;;;;;;;;;5051302;28;20120;-79
2022/03/06 01:30:31;;;;;;;67.57;30.95;;;;;;;;;;5028871;28;20065;-81
2022/03/06 01:32:57;;;;;;;61.35;30.35;;;;;;;;;;5023224;28;20389;-81
2022/03/06 01:35:23;;;;;;;65.53;32.05;;;;;;;;;;5022550;28;20788;-81
2022/03/06 01:37:49;;;;;;;63.50;31.13;;;;;;;;;;5022784;28;20045;-81
2022/03/06 01:40:18;;;;;;;63.97;31.15;;;;;;;;;;5039688;28;20095;-82
2022/03/06 01:42:44;;;;;;;69.35;32.60;;;;;;;;;;5040069;28;20037;-81
2022/03/06 01:45:11;;;;;;;63.83;31.55;;;;;;;;;;5052515;28;20063;-81
2022/03/06 01:47:42;;;;;;;64.75;31.52;;;;;;;;;;5061983;28;20456;-81
2022/03/06 01:50:09;;;;;;;64.47;31.98;;;;;;;;;;5062757;28;20032;-81
2022/03/06 01:52:35;;;;;;;63.00;32.25;;;;;;;;;;5062435;28;20048;-81
2022/03/06 01:55:01;;;;;;;65.53;32.20;;;;;;;;;;5062578;28;20036;-80
2022/03/06 01:57:27;;;;;;;69.43;31.67;;;;;;;;;;5045146;28;20083;-80
2022/03/06 01:59:53;;;;;;;67.75;32.67;;;;;;;;;;5045100;28;20032;-80
2022/03/06 02:02:19;;;;;;;68.85;33.17;;;;;;;;;;5062171;28;20037;-80
2022/03/06 02:04:45;;;;;;;72.22;33.20;;;;;;;;;;5045587;28;20440;-82
2022/03/06 02:07:11;;;;;;;68.30;32.92;;;;;;;;;;5045307;28;20029;-81
2022/03/06 02:09:37;;;;;;;62.97;32.60;;;;;;;;;;5062595;28;20430;-79
2022/03/06 02:12:21;;;;;;;68.25;32.17;;;;;;;;;;5045596;28;20129;-80
2022/03/06 02:14:48;;;;;;;65.53;32.40;;;;;;;;;;5047998;28;20040;-81
2022/03/06 02:17:14;;;;;;;65.57;33.05;;;;;;;;;;5049106;28;20515;-82
2022/03/06 02:19:53;;;;;;;68.95;32.80;;;;;;;;;;5081285;28;20141;-81
2022/03/06 02:22:19;;;;;;;68.90;32.40;;;;;;;;;;5048362;28;20048;-83
2022/03/06 02:24:45;;;;;;;69.68;33.38;;;;;;;;;;5069424;28;20448;-82
2022/03/06 02:27:11;;;;;;;65.28;32.80;;;;;;;;;;5082947;28;20072;-82
2022/03/06 02:29:43;;;;;;;67.60;32.80;;;;;;;;;;5066320;28;20403;-81
2022/03/06 02:32:09;;;;;;;65.55;32.63;;;;;;;;;;5054592;28;20062;-80
2022/03/06 02:34:36;;;;;;;61.90;33.03;;;;;;;;;;5092523;28;20086;-80
2022/03/06 02:37:02;;;;;;;68.60;33.55;;;;;;;;;;5048221;28;20448;-80
2022/03/06 02:39:28;;;;;;;66.15;32.15;;;;;;;;;;5046100;28;20040;-81
2022/03/06 02:41:54;;;;;;;67.20;32.15;;;;;;;;;;5080556;28;20029;-80
2022/03/06 02:44:21;;;;;;;67.20;32.20;;;;;;;;;;5083398;28;20067;-81
2022/03/06 02:46:47;;;;;;;70.82;33.72;;;;;;;;;;5066126;28;20061;-80
2022/03/06 02:49:13;;;;;;;66.72;33.33;;;;;;;;;;5050812;28;20055;-80
2022/03/06 02:51:40;;;;;;;67.88;33.20;;;;;;;;;;5050536;28;20087;-83
2022/03/06 02:54:06;;;;;;;69.35;33.22;;;;;;;;;;5051198;28;20045;-81
2022/03/06 02:56:32;;;;;;;74.15;34.13;;;;;;;;;;5068443;28;20467;-82
2022/03/06 02:58:58;;;;;;;70.63;33.28;;;;;;;;;;5051262;28;20045;-81
2022/03/06 03:01:25;;;;;;;68.55;34.05;;;;;;;;;;5069263;28;20043;-81
2022/03/06 03:03:51;;;;;;;71.57;34.03;;;;;;;;;;5069396;28;20437;-82
2022/03/06 03:06:17;;;;;;;66.28;31.63;;;;;;;;;;5052156;28;20097;-81
2022/03/06 03:08:45;;;;;;;65.55;32.45;;;;;;;;;;5070162;28;20044;-81
2022/03/06 03:11:11;;;;;;;70.13;32.60;;;;;;;;;;5067785;28;20123;-81
2022/03/06 03:13:37;;;;;;;68.13;32.80;;;;;;;;;;5065268;28;20141;-81
2022/03/06 03:16:03;;;;;;;71.18;33.67;;;;;;;;;;5048833;28;20482;-81
2022/03/06 03:18:29;;;;;;;65.90;33.42;;;;;;;;;;5065461;28;20110;-81
2022/03/06 03:20:55;;;;;;;65.07;31.30;;;;;;;;;;5082722;28;20067;-81
2022/03/06 03:23:21;;;;;;;67.80;32.55;;;;;;;;;;5051412;28;20033;-80
2022/03/06 03:25:47;;;;;;;59.10;30.95;;;;;;;;;;5064642;28;20433;-81
2022/03/06 03:28:13;;;;;;;62.60;31.55;;;;;;;;;;5065060;28;20036;-81
2022/03/06 03:30:39;;;;;;;68.40;33.25;;;;;;;;;;5047919;28;20043;-81
2022/03/06 03:33:05;;;;;;;66.25;32.85;;;;;;;;;;5093981;28;20040;-81
2022/03/06 03:35:31;;;;;;;61.47;32.47;;;;;;;;;;5059839;28;20132;-80
2022/03/06 03:37:57;;;;;;;61.92;32.08;;;;;;;;;;5064386;28;20044;-79
2022/03/06 03:40:23;;;;;;;60.40;30.52;;;;;;;;;;5065252;28;20048;-79
2022/03/06 03:42:49;;;;;;;64.32;32.35;;;;;;;;;;5096589;28;20067;-81
2022/03/06 03:45:15;;;;;;;60.05;30.52;;;;;;;;;;5073837;28;20078;-80
2022/03/06 03:47:41;;;;;;;58.75;29.55;;;;;;;;;;5057383;28;20056;-81
2022/03/06 03:50:08;;;;;;;63.65;31.67;;;;;;;;;;5084078;28;20044;-81
2022/03/06 03:52:34;;;;;;;66.15;31.17;;;;;;;;;;5048895;28;20052;-81
2022/03/06 03:55:00;;;;;;;61.40;32.60;;;;;;;;;;5048967;28;20118;-81
2022/03/06 03:57:26;;;;;;;64.95;30.83;;;;;;;;;;5071023;28;20103;-81
2022/03/06 03:59:52;;;;;;;66.80;31.10;;;;;;;;;;5089253;28;20036;-81
2022/03/06 04:02:18;;;;;;;61.95;31.73;;;;;;;;;;5063430;28;20033;-81
2022/03/06 04:04:44;;;;;;;62.28;31.80;;;;;;;;;;5046987;28;20048;-81
2022/03/06 04:07:10;;;;;;;62.95;31.73;;;;;;;;;;5046823;28;20063;-79
2022/03/06 04:09:36;;;;;;;63.85;31.75;;;;;;;;;;5047035;28;20032;-81
2022/03/06 04:12:02;;;;;;;59.50;31.08;;;;;;;;;;5047113;28;20036;-80
2022/03/06 04:14:28;;;;;;;56.35;30.05;;;;;;;;;;5047168;28;20048;-80
2022/03/06 04:16:54;;;;;;;58.67;30.40;;;;;;;;;;5063487;28;20039;-81
2022/03/06 04:19:20;;;;;;;61.25;32.10;;;;;;;;;;5080850;28;20028;-80
2022/03/06 04:21:46;;;;;;;60.05;30.00;;;;;;;;;;5087474;28;20140;-79
2022/03/06 04:24:12;;;;;;;57.92;30.65;;;;;;;;;;5072402;28;20037;-80
2022/03/06 04:26:38;;;;;;;61.28;30.50;;;;;;;;;;5063200;28;20467;-80
2022/03/06 04:29:05;;;;;;;63.58;31.25;;;;;;;;;;5052834;28;20044;-80
2022/03/06 04:31:31;;;;;;;59.03;30.38;;;;;;;;;;5063585;28;20127;-80
2022/03/06 04:33:56;;;;;;;61.88;31.40;;;;;;;;;;5063368;28;20098;-80
2022/03/06 04:36:23;;;;;;;62.25;30.33;;;;;;;;;;5062654;28;20044;-80
2022/03/06 04:38:49;;;;;;;58.72;30.70;;;;;;;;;;5062366;28;20041;-80
2022/03/06 04:41:16;;;;;;;55.80;30.38;;;;;;;;;;5080305;28;20039;-80
2022/03/06 04:43:42;;;;;;;58.35;30.27;;;;;;;;;;5045651;28;20036;-79
2022/03/06 04:46:08;;;;;;;57.63;30.30;;;;;;;;;;5061999;28;20059;-80
2022/03/06 04:48:34;;;;;;;58.40;30.10;;;;;;;;;;5046049;28;20115;-80
2022/03/06 04:51:00;;;;;;;57.63;28.92;;;;;;;;;;5064328;28;20056;-80
2022/03/06 04:53:26;;;;;;;60.30;30.05;;;;;;;;;;5074309;28;20044;-80
2022/03/06 04:55:52;;;;;;;63.97;31.42;;;;;;;;;;5076637;28;20044;-80
2022/03/06 04:58:18;;;;;;;53.80;29.35;;;;;;;;;;5049237;28;20049;-80
2022/03/06 05:00:44;;;;;;;57.17;29.88;;;;;;;;;;5063382;28;20063;-80
2022/03/06 05:03:10;;;;;;;56.50;29.83;;;;;;;;;;5062767;28;20040;-81
2022/03/06 05:05:36;;;;;;;57.72;30.25;;;;;;;;;;5061413;28;20040;-80
2022/03/06 05:08:02;;;;;;;54.92;28.45;;;;;;;;;;5062175;28;20077;-80
2022/03/06 05:10:28;;;;;;;58.30;29.75;;;;;;;;;;5080060;28;20048;-80
2022/03/06 05:12:54;;;;;;;55.95;29.35;;;;;;;;;;5045083;28;20048;-80
2022/03/06 05:15:20;;;;;;;58.53;29.08;;;;;;;;;;5069377;28;20064;-79
2022/03/06 05:17:46;;;;;;;56.63;30.02;;;;;;;;;;5096062;28;20024;-80
2022/03/06 05:20:12;;;;;;;57.08;28.88;;;;;;;;;;5093813;28;20040;-80
2022/03/06 05:22:38;;;;;;;60.72;30.17;;;;;;;;;;5066559;28;20055;-79
2022/03/06 05:25:05;;;;;;;54.80;29.42;;;;;;;;;;5062594;28;20062;-80
2022/03/06 05:27:31;;;;;;;57.03;30.48;;;;;;;;;;5061660;28;20151;-80
2022/03/06 05:29:57;;;;;;;57.03;29.80;;;;;;;;;;5044803;28;20425;-80
2022/03/06 05:32:23;;;;;;;65.45;29.48;;;;;;;;;;5045041;28;20528;-80
2022/03/06 05:34:49;;;;;;;62.60;30.70;;;;;;;;;;5049855;28;20064;-82
2022/03/06 05:37:15;;;;;;;61.15;31.85;;;;;;;;;;5080536;28;20046;-80
2022/03/06 05:39:41;;;;;;;60.22;30.48;;;;;;;;;;5062022;28;20105;-81
2022/03/06 05:42:07;;;;;;;63.20;31.88;;;;;;;;;;5062770;28;20464;-81
2022/03/06 05:44:33;;;;;;;63.90;31.30;;;;;;;;;;5045993;28;20060;-80
2022/03/06 05:46:59;;;;;;;59.75;30.88;;;;;;;;;;5045422;28;20044;-81
2022/03/06 05:49:25;;;;;;;58.90;30.98;;;;;;;;;;5063028;28;20045;-81
2022/03/06 05:51:51;;;;;;;64.90;31.48;;;;;;;;;;5063314;28;20041;-80
2022/03/06 05:54:17;;;;;;;65.97;33.35;;;;;;;;;;5063220;28;20044;-81
2022/03/06 05:56:43;;;;;;;64.55;32.28;;;;;;;;;;5063140;28;20051;-81
2022/03/06 05:59:09;;;;;;;64.55;32.25;;;;;;;;;;5080434;28;20100;-81
2022/03/06 06:01:36;;;;;;;62.10;32.42;;;;;;;;;;5046250;28;20075;-81
2022/03/06 06:04:02;;;;;;;63.90;32.78;;;;;;;;;;5078506;28;20044;-80
2022/03/06 06:06:28;;;;;;;63.78;31.70;;;;;;;;;;5043507;28;20106;-81
2022/03/06 06:08:55;;;;;;;66.00;31.75;;;;;;;;;;5088931;28;20036;-80
2022/03/06 06:11:21;;;;;;;65.75;32.15;;;;;;;;;;5077129;28;20055;-80
2022/03/06 06:13:47;;;;;;;66.30;31.52;;;;;;;;;;5076304;28;20055;-81
2022/03/06 06:16:13;;;;;;;57.35;30.15;;;;;;;;;;5059937;28;20492;-80
2022/03/06 06:18:40;;;;;;;62.95;32.97;;;;;;;;;;5097269;28;20119;-80
2022/03/06 06:21:06;;;;;;;63.53;32.85;;;;;;;;;;5063560;28;20036;-79
2022/03/06 06:23:32;;;;;;;70.03;32.22;;;;;;;;;;5067406;28;20437;-80
2022/03/06 06:25:58;;;;;;;63.97;32.10;;;;;;;;;;5062856;28;20041;-80
2022/03/06 06:28:24;;;;;;;60.38;31.55;;;;;;;;;;5063277;28;20047;-80
2022/03/06 06:30:50;;;;;;;70.07;32.28;;;;;;;;;;5063614;28;20139;-79
2022/03/06 06:33:16;;;;;;;66.25;31.80;;;;;;;;;;5064317;28;20435;-79
2022/03/06 06:35:42;;;;;;;62.45;30.63;;;;;;;;;;5081383;28;20081;-79
2022/03/06 06:38:08;;;;;;;64.68;31.90;;;;;;;;;;5065089;28;20066;-81
2022/03/06 06:40:34;;;;;;;66.60;32.28;;;;;;;;;;5068822;28;20505;-80
2022/03/06 06:43:00;;;;;;;63.70;32.67;;;;;;;;;;5067126;28;20123;-80
2022/03/06 06:45:26;;;;;;;66.32;32.22;;;;;;;;;;5050014;28;20048;-80
2022/03/06 06:47:52;;;;;;;59.90;31.02;;;;;;;;;;5066027;28;20040;-80
2022/03/06 06:50:18;;;;;;;63.90;32.63;;;;;;;;;;5064945;28;20073;-80
2022/03/06 06:52:44;;;;;;;60.58;31.45;;;;;;;;;;5049169;28;20074;-80
2022/03/06 06:55:10;;;;;;;62.55;31.35;;;;;;;;;;5066508;28;20418;-80
2022/03/06 06:57:36;;;;;;;65.50;31.05;;;;;;;;;;5069875;28;20056;-81
2022/03/06 07:00:02;;;;;;;65.93;31.95;;;;;;;;;;5052278;28;20044;-81
2022/03/06 07:02:28;;;;;;;58.00;30.15;;;;;;;;;;5050660;28;20044;-82
2022/03/06 07:04:54;;;;;;;65.07;32.33;;;;;;;;;;5050892;28;20052;-81
2022/03/06 07:07:20;;;;;;;59.85;31.20;;;;;;;;;;5052282;28;20115;-81
2022/03/06 07:09:46;;;;;;;65.13;31.67;;;;;;;;;;5051221;28;20487;-81
2022/03/06 07:12:12;;;;;;;58.97;31.27;;;;;;;;;;5068541;28;20058;-81
2022/03/06 07:14:38;;;;;;;65.07;32.25;;;;;;;;;;5057380;28;20036;-81
2022/03/06 07:17:04;;;;;;;60.17;31.08;;;;;;;;;;5054032;28;20037;-81
2022/03/06 07:19:30;;;;;;;63.17;32.47;;;;;;;;;;5049876;28;20036;-80
2022/03/06 07:21:56;;;;;;;68.30;31.77;;;;;;;;;;5065532;28;20367;-80
2022/03/06 07:24:22;;;;;;;58.78;31.20;;;;;;;;;;5048743;28;20047;-81
2022/03/06 07:26:48;;;;;;;67.05;33.15;;;;;;;;;;5085256;28;20110;-80
2022/03/06 07:29:14;;;;;;;61.83;31.35;;;;;;;;;;5067585;28;20383;-81
2022/03/06 07:31:40;;;;;;;62.95;31.52;;;;;;;;;;5066520;28;20496;-80
2022/03/06 07:34:06;;;;;;;63.08;31.30;;;;;;;;;;5066493;28;20040;-81
2022/03/06 07:36:32;;;;;;;65.15;31.80;;;;;;;;;;5066107;28;20040;-80
2022/03/06 07:38:59;;;;;;;59.13;31.00;;;;;;;;;;5051777;28;20504;-81
2022/03/06 07:41:25;;;;;;;61.25;32.40;;;;;;;;;;5050196;28;20341;-81
2022/03/06 07:43:51;;;;;;;64.60;31.88;;;;;;;;;;5049764;28;20036;-81
2022/03/06 07:46:17;;;;;;;67.43;33.28;;;;;;;;;;5084791;28;20048;-81
2022/03/06 07:48:43;;;;;;;62.65;32.50;;;;;;;;;;5066002;28;20051;-81
2022/03/06 07:51:09;;;;;;;67.15;33.72;;;;;;;;;;5066462;28;20036;-81
2022/03/06 07:53:35;;;;;;;57.20;31.40;;;;;;;;;;5049762;28;20044;-82
2022/03/06 07:56:01;;;;;;;60.63;31.23;;;;;;;;;;5066824;28;20049;-81
2022/03/06 07:58:27;;;;;;;64.07;33.53;;;;;;;;;;5068177;28;20040;-81
2022/03/06 08:00:53;;;;;;;63.08;33.13;;;;;;;;;;5049617;28;20048;-81
2022/03/06 08:03:19;;;;;;;63.97;31.95;;;;;;;;;;5053154;28;20041;-80
2022/03/06 08:05:45;;;;;;;66.70;33.00;;;;;;;;;;5057178;28;20043;-80
2022/03/06 08:08:11;;;;;;;65.60;33.83;;;;;;;;;;5053153;28;20040;-79
2022/03/06 08:10:37;;;;;;;62.38;31.83;;;;;;;;;;5057115;28;20089;-80
2022/03/06 08:13:03;;;;;;;59.15;31.13;;;;;;;;;;5067670;28;20054;-81
2022/03/06 08:15:29;;;;;;;59.50;32.10;;;;;;;;;;5069044;28;20049;-81
2022/03/06 08:17:55;;;;;;;63.75;31.10;;;;;;;;;;5076926;28;20046;-81
2022/03/06 08:20:21;;;;;;;58.72;30.92;;;;;;;;;;5073462;28;20206;-81
2022/03/06 08:22:47;;;;;;;62.42;32.28;;;;;;;;;;5068840;28;20103;-80
2022/03/06 08:25:13;;;;;;;61.30;30.63;;;;;;;;;;5067293;28;20140;-80
2022/03/06 08:27:39;;;;;;;56.97;31.98;;;;;;;;;;5066126;28;20403;-80
2022/03/06 08:30:05;;;;;;;56.88;30.27;;;;;;;;;;5049900;28;20036;-81
2022/03/06 08:32:32;;;;;;;57.72;31.35;;;;;;;;;;5065003;28;20102;-80
2022/03/06 08:34:58;;;;;;;58.33;29.98;;;;;;;;;;5063745;28;20044;-81
2022/03/06 08:37:24;;;;;;;51.95;29.63;;;;;;;;;;5066662;28;20097;-81
2022/03/06 08:39:50;;;;;;;54.25;28.08;;;;;;;;;;5047862;28;20044;-81
2022/03/06 08:42:16;;;;;;;51.03;27.40;;;;;;;;;;5063767;28;20082;-80
2022/03/06 08:44:42;;;;;;;48.95;27.65;;;;;;;;;;5049173;28;20334;-81
2022/03/06 08:47:09;;;;;;;55.20;29.00;;;;;;;;;;5048361;28;20040;-82
2022/03/06 08:49:35;;;;;;;54.42;28.42;;;;;;;;;;5065316;28;20062;-81
2022/03/06 08:52:01;;;;;;;54.22;28.98;;;;;;;;;;5069588;28;20060;-80
2022/03/06 08:54:27;;;;;;;54.05;28.50;;;;;;;;;;5066302;28;20041;-81
2022/03/06 08:56:53;;;;;;;50.10;28.38;;;;;;;;;;5048414;28;20055;-80
2022/03/06 08:59:21;;;;;;;53.42;28.13;;;;;;;;;;5047406;28;20123;-80
2022/03/06 09:01:55;;;;;;;50.40;28.13;;;;;;;;;;5047312;28;20040;-80
2022/03/06 09:04:22;;;;;;;48.88;27.35;;;;;;;;;;5047358;28;20040;-79
2022/03/06 09:06:48;;;;;;;47.85;27.27;;;;;;;;;;5062588;28;20063;-80
2022/03/06 09:09:14;;;;;;;49.05;26.77;;;;;;;;;;5061695;28;20048;-79
2022/03/06 09:11:40;;;;;;;47.33;26.25;;;;;;;;;;5063061;28;20037;-80
2022/03/06 09:14:07;;;;;;;51.97;26.55;;;;;;;;;;5079216;28;20051;-80
2022/03/06 09:16:33;;;;;;;45.72;25.48;;;;;;;;;;5044299;28;20052;-80
2022/03/06 09:18:59;;;;;;;46.97;26.95;;;;;;;;;;5078218;28;20044;-79
2022/03/06 09:21:27;;;;;;;47.28;26.85;;;;;;;;;;5044428;28;20036;-79
2022/03/06 09:23:53;;;;;;;50.33;25.60;;;;;;;;;;5060616;28;20182;-79
2022/03/06 09:26:19;;;;;;;42.05;24.98;;;;;;;;;;5044017;28;20068;-80
2022/03/06 09:28:45;;;;;;;43.80;25.67;;;;;;;;;;5063783;28;20040;-81
2022/03/06 09:31:11;;;;;;;47.17;25.98;;;;;;;;;;5069067;28;20414;-81
2022/03/06 09:33:37;;;;;;;50.17;26.98;;;;;;;;;;5086961;28;20040;-80
2022/03/06 09:36:03;;;;;;;43.47;24.48;;;;;;;;;;5068516;28;20044;-80
2022/03/06 09:38:29;;;;;;;44.85;25.70;;;;;;;;;;5049444;28;20044;-81
2022/03/06 09:41:01;;;;;;;47.67;26.70;;;;;;;;;;5074159;28;20059;-81
2022/03/06 09:43:27;;;;;;;44.08;25.05;;;;;;;;;;5064364;28;20071;-80
2022/03/06 09:45:53;;;;;;;42.45;25.40;;;;;;;;;;5063664;28;20690;-81
2022/03/06 09:48:19;;;;;;;42.42;24.90;;;;;;;;;;5063279;28;20032;-82
2022/03/06 09:50:45;;;;;;;41.83;24.73;;;;;;;;;;5062857;28;20033;-81
2022/03/06 09:53:11;;;;;;;40.95;24.17;;;;;;;;;;5045653;28;20421;-80
2022/03/06 09:55:37;;;;;;;42.70;24.23;;;;;;;;;;5046722;28;20040;-80
2022/03/06 09:58:03;;;;;;;40.97;23.90;;;;;;;;;;5049058;28;20108;-81
2022/03/06 10:00:29;;;;;;;40.95;23.13;;;;;;;;;;5062232;28;20043;-80
2022/03/06 10:02:59;;;;;;;40.20;22.90;;;;;;;;;;5061706;28;20043;-80
2022/03/06 10:05:29;;;;;;;41.83;23.75;;;;;;;;;;5062508;28;20062;-80
2022/03/06 10:08:05;;;;;;;38.17;22.92;;;;;;;;;;5045172;28;20044;-81
2022/03/06 10:10:35;;;;;;;38.17;23.23;;;;;;;;;;5061124;28;20094;-79
2022/03/06 10:13:06;;;;;;;37.90;22.85;;;;;;;;;;5044736;28;20406;-80
2022/03/06 10:15:32;;;;;;;36.38;22.00;;;;;;;;;;5062161;28;20036;-81
2022/03/06 10:18:01;;;;;;;36.92;20.90;;;;;;;;;;5061894;28;20063;-81
2022/03/06 10:20:31;;;;;;;37.58;22.25;;;;;;;;;;5045866;28;20132;-80
2022/03/06 10:23:00;;;;;;;39.30;21.13;;;;;;;;;;5062761;28;20115;-80
2022/03/06 10:25:26;;;;;;;32.72;20.17;;;;;;;;;;5045633;28;20072;-80
2022/03/06 10:27:53;;;;;;;35.55;20.58;;;;;;;;;;5057055;28;20433;-79
2022/03/06 10:30:23;;;;;;;29.92;17.98;;;;;;;;;;5081644;28;20049;-83
2022/03/06 10:32:49;;;;;;;25.80;16.00;;;;;;;;;;5092311;28;20097;-79
2022/03/06 10:35:15;;;;;;;25.60;16.02;;;;;;;;;;5061948;28;20060;-81
2022/03/06 10:37:40;;;;;;;29.33;16.88;;;;;;;;;;5060647;28;20052;-80
2022/03/06 10:40:07;;;;;;;28.73;18.35;;;;;;;;;;5061346;28;20036;-81
2022/03/06 10:42:33;;;;;;;25.35;14.90;;;;;;;;;;5044993;28;20047;-81
2022/03/06 10:44:59;;;;;;;25.50;15.63;;;;;;;;;;5045365;28;20048;-83
2022/03/06 10:47:25;;;;;;;26.65;15.77;;;;;;;;;;5044550;28;20040;-80
2022/03/06 10:50:01;;;;;;;26.45;14.95;;;;;;;;;;5046900;28;20040;-81
2022/03/06 10:52:27;;;;;;;23.45;14.90;;;;;;;;;;5060715;28;20037;-81
2022/03/06 10:54:54;;;;;;;24.95;15.32;;;;;;;;;;5060080;28;20451;-80
2022/03/06 10:57:20;;;;;;;23.88;13.18;;;;;;;;;;5061729;28;20087;-82
2022/03/06 10:59:46;;;;;;;23.55;14.50;;;;;;;;;;5060726;28;20048;-80
2022/03/06 11:02:13;;;;;;;21.65;13.85;;;;;;;;;;5064420;28;20368;-80
2022/03/06 11:04:39;;;;;;;24.85;14.68;;;;;;;;;;5066163;28;20036;-81
2022/03/06 11:07:05;;;;;;;22.98;14.10;;;;;;;;;;5064600;28;20060;-80
2022/03/06 11:09:31;;;;;;;22.30;13.40;;;;;;;;;;5064434;28;20044;-80
2022/03/06 11:11:57;;;;;;;23.67;13.13;;;;;;;;;;5065851;28;20068;-79
2022/03/06 11:14:24;;;;;;;21.95;13.60;;;;;;;;;;5056851;28;20033;-80
2022/03/06 11:16:50;;;;;;;22.08;12.70;;;;;;;;;;5073248;28;20046;-80
2022/03/06 11:19:17;;;;;;;24.58;14.40;;;;;;;;;;5071625;28;20041;-82
2022/03/06 11:21:44;;;;;;;21.92;13.75;;;;;;;;;;5068150;28;20043;-81
2022/03/06 11:24:28;;;;;;;22.95;14.45;;;;;;;;;;5052102;28;20045;-80
2022/03/06 11:27:13;;;;;;;21.42;13.20;;;;;;;;;;5067640;28;20071;-78
2022/03/06 11:30:02;;;;;;;21.27;13.25;;;;;;;;;;5086621;28;20051;-79
2022/03/06 11:32:29;;;;;;;21.73;13.57;;;;;;;;;;5070120;28;20068;-81
2022/03/06 11:35:09;;;;;;;20.02;13.27;;;;;;;;;;5066288;28;20052;-80
2022/03/06 11:38:01;;;;;;;20.60;12.93;;;;;;;;;;5048354;28;20460;-81
2022/03/06 11:40:45;;;;;;;19.00;12.48;;;;;;;;;;5064601;28;20041;-79
2022/03/06 11:43:12;;;;;;;21.42;13.18;;;;;;;;;;5066785;28;20036;-81
2022/03/06 11:45:48;;;;;;;22.98;13.38;;;;;;;;;;5069084;28;20048;-79
2022/03/06 11:48:41;;;;;;;20.30;12.63;;;;;;;;;;5048280;28;20098;-79
2022/03/06 11:51:17;;;;;;;20.92;12.63;;;;;;;;;;5047490;28;20440;-81
2022/03/06 11:54:00;;;;;;;19.73;12.77;;;;;;;;;;5087627;28;20036;-81
2022/03/06 11:56:33;;;;;;;19.88;12.80;;;;;;;;;;5096205;28;20082;-84
2022/03/06 11:59:04;;;;;;;21.17;12.77;;;;;;;;;;5077912;28;20107;-81
2022/03/06 12:01:34;;;;;;;21.80;12.60;;;;;;;;;;5047533;28;20262;-81
2022/03/06 12:04:21;;;;;;;20.55;13.63;;;;;;;;;;5053404;28;20037;-81
2022/03/06 12:06:49;;;;;;;20.63;13.35;;;;;;;;;;5061583;28;20099;-80
2022/03/06 12:09:15;;;;;;;22.73;12.60;;;;;;;;;;5079729;28;20040;-81
2022/03/06 12:11:41;;;;;;;22.83;13.20;;;;;;;;;;5079451;28;20016;-82
2022/03/06 12:14:14;;;;;;;18.63;12.88;;;;;;;;;;5057608;28;20052;-80
2022/03/06 12:16:59;;;;;;;20.75;13.52;;;;;;;;;;5046671;28;20115;-81
2022/03/06 12:19:25;;;;;;;21.08;12.95;;;;;;;;;;5062034;28;20040;-81
2022/03/06 12:21:51;;;;;;;22.27;14.35;;;;;;;;;;5064509;28;20036;-81
2022/03/06 12:24:38;;;;;;;24.40;14.88;;;;;;;;;;5064893;28;20035;-83
2022/03/06 12:27:10;;;;;;;25.05;14.73;;;;;;;;;;5081040;28;20037;-82
2022/03/06 12:29:48;;;;;;;20.70;13.70;;;;;;;;;;5064294;28;20074;-82
2022/03/06 12:32:27;;;;;;;23.38;14.30;;;;;;;;;;5063980;28;20041;-82
2022/03/06 12:35:08;;;;;;;23.60;14.77;;;;;;;;;;5063978;28;20044;-82
2022/03/06 12:37:55;;;;;;;23.55;14.77;;;;;;;;;;5066934;28;20068;-81
2022/03/06 12:40:21;;;;;;;22.60;15.25;;;;;;;;;;5092095;28;20060;-81
2022/03/06 12:42:47;;;;;;;25.17;14.80;;;;;;;;;;5069145;28;20468;-82
2022/03/06 12:45:14;;;;;;;22.48;15.35;;;;;;;;;;5067199;28;20041;-82
2022/03/06 12:47:41;;;;;;;25.00;15.23;;;;;;;;;;5063799;28;20064;-83
2022/03/06 12:50:08;;;;;;;22.33;14.70;;;;;;;;;;5062961;28;20039;-82
2022/03/06 12:52:35;;;;;;;23.10;15.45;;;;;;;;;;5045989;28;20041;-81
2022/03/06 12:55:03;;;;;;;27.38;16.65;;;;;;;;;;5046400;28;20052;-81
2022/03/06 12:57:30;;;;;;;24.55;15.25;;;;;;;;;;5046276;28;20118;-81
2022/03/06 12:59:56;;;;;;;27.02;16.95;;;;;;;;;;5045552;28;20110;-83
2022/03/06 13:02:22;;;;;;;24.58;16.42;;;;;;;;;;5045852;28;20089;-83
2022/03/06 13:04:49;;;;;;;25.00;16.08;;;;;;;;;;5045764;28;20036;-83
2022/03/06 13:07:15;;;;;;;27.75;16.90;;;;;;;;;;5062309;28;20040;-84
2022/03/06 13:09:41;;;;;;;24.50;15.98;;;;;;;;;;5079766;28;20040;-83
2022/03/06 13:12:07;;;;;;;23.42;15.23;;;;;;;;;;5063010;28;20143;-82
2022/03/06 13:14:35;;;;;;;23.83;15.27;;;;;;;;;;5069567;28;20127;-81
2022/03/06 13:17:04;;;;;;;26.05;17.95;;;;;;;;;;5047873;28;20107;-84
2022/03/06 13:19:40;;;;;;;27.35;17.45;;;;;;;;;;5079911;28;20041;-83
2022/03/06 13:22:08;;;;;;;27.40;17.25;;;;;;;;;;5063792;28;20449;-83
2022/03/06 13:24:41;;;;;;;25.05;16.98;;;;;;;;;;5080022;28;20040;-83
2022/03/06 13:27:07;;;;;;;29.10;18.00;;;;;;;;;;5045227;28;20040;-83
2022/03/06 13:29:33;;;;;;;28.67;17.73;;;;;;;;;;5063979;28;20050;-83
2022/03/06 13:31:59;;;;;;;24.30;16.55;;;;;;;;;;5048780;28;20520;-80
2022/03/06 13:34:26;;;;;;;26.10;16.92;;;;;;;;;;5080258;28;20068;-83
2022/03/06 13:36:52;;;;;;;25.95;17.92;;;;;;;;;;5062872;28;20041;-83
2022/03/06 13:39:19;;;;;;;25.67;16.75;;;;;;;;;;5063776;28;20051;-82
2022/03/06 13:41:52;;;;;;;25.10;16.27;;;;;;;;;;5064493;28;20075;-83
2022/03/06 13:44:18;;;;;;;28.35;17.38;;;;;;;;;;5064620;28;20036;-82
2022/03/06 13:46:44;;;;;;;23.95;15.35;;;;;;;;;;5064943;28;20048;-82
2022/03/06 13:49:11;;;;;;;30.40;19.48;;;;;;;;;;5049571;28;20054;-81
2022/03/06 13:51:37;;;;;;;28.58;19.48;;;;;;;;;;5077022;28;20066;-80
2022/03/06 13:54:05;;;;;;;26.02;17.25;;;;;;;;;;5081938;28;20056;-82
2022/03/06 13:56:41;;;;;;;22.77;16.40;;;;;;;;;;5072102;28;20044;-83
2022/03/06 13:59:08;;;;;;;24.88;16.52;;;;;;;;;;5061774;28;20448;-82
2022/03/06 14:01:34;;;;;;;23.23;15.32;;;;;;;;;;5062483;28;20115;-82
2022/03/06 14:04:01;;;;;;;21.88;14.98;;;;;;;;;;5045142;28;20054;-82
2022/03/06 14:06:41;;;;;;;22.27;14.30;;;;;;;;;;5045105;28;20072;-83
2022/03/06 14:09:19;;;;;;;21.73;13.05;;;;;;;;;;5046092;28;20045;-82
2022/03/06 14:11:45;;;;;;;26.38;14.93;;;;;;;;;;5062046;28;20404;-83
2022/03/06 14:14:11;;;;;;;20.60;14.25;;;;;;;;;;5045546;28;20047;-82
2022/03/06 14:16:37;;;;;;;21.83;14.82;;;;;;;;;;5079482;28;20082;-82